Terminal Aerodrome Forecast
Issued by NWS Wilmington, OH

Current Version | Previous Version | Graphics & Text | Print | Product List | Glossary On
Versions: 1 2 3 4 5 6 7 8 9 10 11 12 13 14 15 16 17 18 19 20 21 22 23 24 25 26 27 28 29 30
005
FTUS41 KILN 192105 AAA
TAFCVG
TAF AMD
KCVG 192105Z 1921/2024 09006KT P6SM OVC100
     FM192300 10009KT P6SM VCSH OVC050
     FM200000 10006KT 3SM -RA OVC040
     FM200300 11009KT 2SM -RA OVC025
      TEMPO 2003/2005 1SM -RA OVC015
     FM200500 12007KT 2SM -RA BR OVC009
     FM201000 21005KT 3SM BR VCSH OVC005
     FM201400 22007KT 3SM BR OVC005
     FM201600 22008KT P6SM BKN012=

USA.gov is the U.S. government's official web portal to all federal, state and local government web resources and services.